createdAt,value
2023-04-18T00:00:33.209Z,3.80
2023-04-18T00:03:03.899Z,3.80
2023-04-18T00:05:32.287Z,3.80
2023-04-18T00:08:00.792Z,3.90
2023-04-18T00:10:28.533Z,3.90
2023-04-18T00:12:56.403Z,3.90
2023-04-18T00:15:24.196Z,3.90
2023-04-18T00:17:52.491Z,3.90
2023-04-18T00:20:20.381Z,3.80
2023-04-18T00:22:48.205Z,3.80
2023-04-18T00:25:16.266Z,3.80
2023-04-18T00:27:44.071Z,3.80
2023-04-18T00:30:12.520Z,3.90
2023-04-18T00:32:40.476Z,3.90
2023-04-18T00:35:08.669Z,3.90
2023-04-18T00:37:37.290Z,3.80
2023-04-18T00:40:05.927Z,3.70
2023-04-18T00:42:34.092Z,3.80
2023-04-18T00:45:02.140Z,3.70
2023-04-18T00:47:31.198Z,3.60
2023-04-18T00:49:59.608Z,3.50
2023-04-18T00:52:28.020Z,3.60
2023-04-18T00:54:56.250Z,3.70
2023-04-18T00:57:25.298Z,3.80
2023-04-18T00:59:53.214Z,3.80
2023-04-18T01:02:20.999Z,3.80
2023-04-18T01:04:48.691Z,3.80
2023-04-18T01:07:16.454Z,3.80
2023-04-18T01:09:44.649Z,3.70
2023-04-18T01:12:12.173Z,3.80
2023-04-18T01:14:45.389Z,3.80
2023-04-18T01:17:13.459Z,3.90
2023-04-18T01:19:41.213Z,3.80
2023-04-18T01:22:10.494Z,3.80
2023-04-18T01:24:38.090Z,3.70
2023-04-18T01:27:05.977Z,3.70
2023-04-18T01:29:34.548Z,3.60
2023-04-18T01:32:02.735Z,3.50
2023-04-18T01:34:30.331Z,3.60
2023-04-18T01:36:58.119Z,3.60
2023-04-18T01:39:25.855Z,3.40
2023-04-18T01:41:53.704Z,3.40
2023-04-18T01:44:21.376Z,3.40
2023-04-18T01:46:48.962Z,3.40
2023-04-18T01:49:16.766Z,3.40
2023-04-18T01:51:44.493Z,3.30
2023-04-18T01:54:12.263Z,3.30
2023-04-18T01:56:40.215Z,3.20
2023-04-18T01:59:07.813Z,3.20
2023-04-18T02:01:35.411Z,3.30
2023-04-18T02:04:02.997Z,3.40
2023-04-18T02:06:30.837Z,3.40
2023-04-18T02:09:00.619Z,3.40
2023-04-18T02:11:28.338Z,3.30
2023-04-18T02:13:56.470Z,3.40
2023-04-18T02:16:24.129Z,3.40
2023-04-18T02:18:52.489Z,3.40
2023-04-18T02:21:21.893Z,3.40
2023-04-18T02:23:49.996Z,3.50
2023-04-18T02:26:17.589Z,3.50
2023-04-18T02:28:45.153Z,3.40
2023-04-18T02:31:15.004Z,3.40
2023-04-18T02:33:43.944Z,3.50
2023-04-18T02:36:13.428Z,3.40
2023-04-18T02:38:43.327Z,3.40
2023-04-18T02:41:15.230Z,3.40
2023-04-18T02:43:42.904Z,3.30
2023-04-18T02:46:10.576Z,3.30
2023-04-18T02:48:38.376Z,3.30
2023-04-18T02:51:08.326Z,3.30
2023-04-18T02:53:37.925Z,3.40
2023-04-18T02:56:06.136Z,3.40
2023-04-18T02:58:52.527Z,3.40
2023-04-18T03:01:52.483Z,3.40
2023-04-18T03:04:22.454Z,3.40
2023-04-18T03:07:02.142Z,3.40
2023-04-18T03:09:33.735Z,3.40
2023-04-18T03:12:06.188Z,3.50
2023-04-18T03:14:35.819Z,3.50
2023-04-18T03:17:04.304Z,3.40
2023-04-18T03:19:38.092Z,3.50
2023-04-18T03:22:10.046Z,3.50
2023-04-18T03:24:43.972Z,3.50
2023-04-18T03:27:13.435Z,3.50
2023-04-18T03:29:43.176Z,3.50
2023-04-18T03:32:11.517Z,3.50
2023-04-18T03:34:39.055Z,3.50
2023-04-18T03:37:08.635Z,3.60
2023-04-18T03:39:41.878Z,3.70
2023-04-18T03:42:10.829Z,3.60
2023-04-18T03:44:39.275Z,3.60
2023-04-18T03:47:07.405Z,3.70
2023-04-18T03:49:39.058Z,3.60
2023-04-18T03:52:06.670Z,3.70
2023-04-18T03:54:34.410Z,3.70
2023-04-18T03:57:02.613Z,3.80
2023-04-18T03:59:30.982Z,3.70
2023-04-18T04:01:58.766Z,3.70
2023-04-18T04:04:26.612Z,3.60
2023-04-18T04:06:54.399Z,3.60
2023-04-18T04:09:21.983Z,3.60
2023-04-18T04:11:50.950Z,3.80
2023-04-18T04:14:18.555Z,3.70
2023-04-18T04:16:47.192Z,3.70
2023-04-18T04:19:17.221Z,3.80
2023-04-18T04:21:53.500Z,3.80
2023-04-18T04:24:22.735Z,3.80
2023-04-18T04:26:51.891Z,3.80
2023-04-18T04:29:23.963Z,3.80
2023-04-18T04:31:53.078Z,3.90
2023-04-18T04:34:34.467Z,3.90
2023-04-18T04:37:04.659Z,3.90
2023-04-18T04:39:37.358Z,3.90
2023-04-18T04:42:28.619Z,3.90
2023-04-18T04:45:09.679Z,3.90
2023-04-18T04:47:37.724Z,3.90
2023-04-18T04:50:07.777Z,4.00
2023-04-18T04:52:35.454Z,4.10
2023-04-18T04:55:04.175Z,4.10
2023-04-18T04:57:31.727Z,4.20
2023-04-18T04:59:59.671Z,4.30
2023-04-18T05:02:28.999Z,4.40
2023-04-18T05:04:56.707Z,4.40
2023-04-18T05:07:24.272Z,4.30
2023-04-18T05:09:53.481Z,4.30
2023-04-18T05:12:21.545Z,4.30
2023-04-18T05:14:49.093Z,4.30
2023-04-18T05:17:16.727Z,4.40
2023-04-18T05:19:44.299Z,4.40
2023-04-18T05:22:11.931Z,4.40
2023-04-18T05:24:39.612Z,4.40
2023-04-18T05:27:07.698Z,4.40
2023-04-18T05:29:35.295Z,4.40
2023-04-18T05:32:03.396Z,4.40
2023-04-18T05:34:31.849Z,4.40
2023-04-18T05:36:59.437Z,4.50
2023-04-18T05:39:27.140Z,4.50
2023-04-18T05:41:54.712Z,4.60
2023-04-18T05:44:24.186Z,4.50
2023-04-18T05:46:52.168Z,4.60
2023-04-18T05:49:20.010Z,4.60
2023-04-18T05:51:49.825Z,4.70
2023-04-18T05:54:17.461Z,4.70
2023-04-18T05:56:45.361Z,4.80
2023-04-18T05:59:13.217Z,4.90
2023-04-18T06:01:41.065Z,5.00
2023-04-18T06:04:08.836Z,5.10
2023-04-18T06:06:36.497Z,5.10
2023-04-18T06:09:04.660Z,5.10
2023-04-18T06:11:35.756Z,5.20
2023-04-18T06:14:03.761Z,5.20
2023-04-18T06:16:31.421Z,5.30
2023-04-18T06:19:01.268Z,5.30
2023-04-18T06:21:29.304Z,5.40
2023-04-18T06:23:56.990Z,5.50
2023-04-18T06:26:24.609Z,5.60
2023-04-18T06:28:52.252Z,5.60
2023-04-18T06:31:19.915Z,5.70
2023-04-18T06:33:47.559Z,5.80
2023-04-18T06:36:15.266Z,5.90
2023-04-18T06:38:42.822Z,6.10
2023-04-18T06:41:10.448Z,6.30
2023-04-18T06:43:38.166Z,6.30
2023-04-18T06:46:06.382Z,6.50
2023-04-18T06:48:34.189Z,6.60
2023-04-18T06:51:01.749Z,6.80
2023-04-18T06:53:29.306Z,6.90
2023-04-18T06:55:57.039Z,7.10
2023-04-18T06:58:24.631Z,7.10
2023-04-18T07:00:52.962Z,7.10
2023-04-18T07:03:21.007Z,7.10
2023-04-18T07:05:50.379Z,7.30
2023-04-18T07:08:18.100Z,7.30
2023-04-18T07:10:45.677Z,7.40
2023-04-18T07:13:13.396Z,7.50
2023-04-18T07:15:41.876Z,7.70
2023-04-18T07:18:09.609Z,7.90
2023-04-18T07:20:37.224Z,7.90
2023-04-18T07:23:04.940Z,7.80
2023-04-18T07:25:32.608Z,7.80
2023-04-18T07:28:00.402Z,7.90
2023-04-18T07:30:28.140Z,8.00
2023-04-18T07:32:55.962Z,8.20
2023-04-18T07:35:23.576Z,8.20
2023-04-18T07:37:52.670Z,8.50
2023-04-18T07:40:21.847Z,8.50
2023-04-18T07:42:49.461Z,8.60
2023-04-18T07:45:17.720Z,8.70
2023-04-18T07:47:45.364Z,8.80
2023-04-18T07:50:14.043Z,8.90
2023-04-18T07:52:47.806Z,8.90
2023-04-18T07:55:15.844Z,9.00
2023-04-18T07:57:45.797Z,9.10
2023-04-18T08:00:14.789Z,9.10
2023-04-18T08:02:42.403Z,9.10
2023-04-18T08:05:10.755Z,9.40
2023-04-18T08:07:38.530Z,9.40
2023-04-18T08:10:06.795Z,9.50
2023-04-18T08:12:36.311Z,9.70
2023-04-18T08:15:04.537Z,9.70
2023-04-18T08:17:33.235Z,9.80
2023-04-18T08:20:02.440Z,10.00
2023-04-18T08:22:29.983Z,10.10
2023-04-18T08:25:03.851Z,10.10
2023-04-18T08:27:33.386Z,10.20
2023-04-18T08:30:01.804Z,10.40
2023-04-18T08:32:30.717Z,10.60
2023-04-18T08:34:58.478Z,10.70
2023-04-18T08:37:27.850Z,11.00
2023-04-18T08:39:55.417Z,11.20
2023-04-18T08:42:23.784Z,11.20
2023-04-18T08:44:52.499Z,11.20
2023-04-18T08:47:20.791Z,11.20
2023-04-18T08:49:48.947Z,11.30
2023-04-18T08:52:17.676Z,11.60
2023-04-18T08:54:46.695Z,11.70
2023-04-18T08:57:23.667Z,11.80
2023-04-18T08:59:51.328Z,11.90
2023-04-18T09:02:19.523Z,12.20
2023-04-18T09:04:52.582Z,12.50
2023-04-18T09:07:28.533Z,12.60
2023-04-18T09:09:57.389Z,12.80
2023-04-18T09:12:27.354Z,12.90
2023-04-18T09:14:57.927Z,13.40
2023-04-18T09:17:42.500Z,13.40
2023-04-18T09:20:12.026Z,13.20
2023-04-18T09:22:45.999Z,13.20
2023-04-18T09:25:27.298Z,13.20
2023-04-18T09:27:57.402Z,13.50
2023-04-18T09:30:39.419Z,13.70
2023-04-18T09:33:12.781Z,13.70
2023-04-18T09:35:40.522Z,13.90
2023-04-18T09:38:08.504Z,13.90
2023-04-18T09:40:36.183Z,14.20
2023-04-18T09:43:19.297Z,14.30
2023-04-18T09:45:50.150Z,14.40
2023-04-18T09:48:17.905Z,14.20
2023-04-18T09:50:47.657Z,13.90
2023-04-18T09:53:20.762Z,13.80
2023-04-18T09:55:56.121Z,13.90
2023-04-18T09:58:28.385Z,14.20
2023-04-18T10:00:56.972Z,14.10
2023-04-18T10:03:32.858Z,13.90
2023-04-18T10:06:00.802Z,14.30
2023-04-18T10:08:28.653Z,14.90
2023-04-18T10:10:58.678Z,15.30
2023-04-18T10:13:28.756Z,14.90
2023-04-18T10:15:56.723Z,14.60
2023-04-18T10:18:24.745Z,15.10
2023-04-18T10:21:03.171Z,15.10
2023-04-18T10:23:39.121Z,14.70
2023-04-18T10:26:11.145Z,14.70
2023-04-18T10:28:53.484Z,15.00
2023-04-18T10:31:23.784Z,14.90
2023-04-18T10:36:30.274Z,14.90
2023-04-18T10:39:05.878Z,15.20
2023-04-18T10:41:34.372Z,15.10
2023-04-18T10:44:12.264Z,15.00
2023-04-18T10:46:52.041Z,14.70
2023-04-18T10:49:27.420Z,14.50
2023-04-18T10:52:00.667Z,14.60
2023-04-18T10:54:50.001Z,14.60
2023-04-18T10:57:18.041Z,14.60
2023-04-18T10:59:50.434Z,14.60
2023-04-18T11:02:25.711Z,14.70
2023-04-18T11:05:00.711Z,14.60
2023-04-18T11:07:46.166Z,14.30
2023-04-18T11:10:16.546Z,13.90
2023-04-18T11:12:44.218Z,13.80
2023-04-18T11:15:15.125Z,13.70
2023-04-18T11:17:42.798Z,13.50
2023-04-18T11:20:13.638Z,13.70
2023-04-18T11:22:54.840Z,13.70
2023-04-18T11:25:35.110Z,14.00
2023-04-18T11:28:04.609Z,14.10
2023-04-18T11:30:40.814Z,14.10
2023-04-18T11:33:09.901Z,14.10
2023-04-18T11:35:45.857Z,14.00
2023-04-18T11:38:15.023Z,14.00
2023-04-18T11:40:49.800Z,14.00
2023-04-18T11:43:26.055Z,13.80
2023-04-18T11:45:55.356Z,13.70
2023-04-18T11:48:23.437Z,13.80
2023-04-18T11:50:51.233Z,13.80
2023-04-18T11:53:38.820Z,13.80
2023-04-18T11:56:06.852Z,13.70
2023-04-18T11:58:35.322Z,13.80
2023-04-18T12:01:22.874Z,14.20
2023-04-18T12:04:04.442Z,14.40
2023-04-18T12:06:52.844Z,14.40
2023-04-18T12:09:23.005Z,14.30
2023-04-18T12:12:04.053Z,14.10
2023-04-18T12:14:31.626Z,14.00
2023-04-18T12:16:59.250Z,13.90
2023-04-18T12:19:28.239Z,13.80
2023-04-18T12:21:57.793Z,13.70
2023-04-18T12:24:25.385Z,13.50
2023-04-18T12:26:53.229Z,13.30
2023-04-18T12:29:20.907Z,13.30
2023-04-18T12:31:48.570Z,13.20
2023-04-18T12:34:16.240Z,13.20
2023-04-18T12:36:43.965Z,13.00
2023-04-18T12:39:11.655Z,12.80
2023-04-18T12:41:39.522Z,12.70
2023-04-18T12:44:07.340Z,12.60
2023-04-18T12:46:35.072Z,12.50
2023-04-18T12:49:02.760Z,12.50
2023-04-18T12:51:31.494Z,12.40
2023-04-18T12:53:59.127Z,12.40
2023-04-18T12:56:26.805Z,12.40
2023-04-18T12:58:54.409Z,12.40
2023-04-18T13:01:22.173Z,12.50
2023-04-18T13:03:59.722Z,12.50
2023-04-18T13:06:31.987Z,12.50
2023-04-18T13:08:59.617Z,12.50
2023-04-18T13:11:29.260Z,12.60
2023-04-18T13:13:56.856Z,12.70
2023-04-18T13:16:24.582Z,12.80
2023-04-18T13:18:52.200Z,12.80
2023-04-18T13:21:19.777Z,12.90
2023-04-18T13:23:47.361Z,13.00
2023-04-18T13:26:14.935Z,13.20
2023-04-18T13:28:42.531Z,13.20
2023-04-18T13:31:10.172Z,13.40
2023-04-18T13:33:37.758Z,13.50
2023-04-18T13:36:05.720Z,13.40
2023-04-18T13:38:33.274Z,13.30
2023-04-18T13:41:11.559Z,13.40
2023-04-18T13:43:40.932Z,13.30
2023-04-18T13:46:08.651Z,13.40
2023-04-18T13:48:36.387Z,13.40
2023-04-18T13:51:04.113Z,13.40
2023-04-18T13:53:31.644Z,13.30
2023-04-18T13:56:01.212Z,13.10
2023-04-18T13:58:28.800Z,13.00
2023-04-18T14:00:56.580Z,13.00
2023-04-18T14:03:24.495Z,13.10
2023-04-18T14:05:52.155Z,13.20
2023-04-18T14:08:19.817Z,13.30
2023-04-18T14:10:47.496Z,13.40
2023-04-18T14:13:15.051Z,13.20
2023-04-18T14:15:42.681Z,13.20
2023-04-18T14:18:10.299Z,13.10
2023-04-18T14:20:37.895Z,13.00
2023-04-18T14:23:05.436Z,13.00
2023-04-18T14:25:33.028Z,13.00
2023-04-18T14:28:08.736Z,13.00
2023-04-18T14:30:39.826Z,12.90
2023-04-18T14:33:09.489Z,12.80
2023-04-18T14:35:37.377Z,12.80
2023-04-18T14:38:04.994Z,12.70
2023-04-18T14:40:33.242Z,12.60
2023-04-18T14:43:00.919Z,12.60
2023-04-18T14:45:31.157Z,12.70
2023-04-18T14:47:59.541Z,12.70
2023-04-18T14:50:27.735Z,12.60
2023-04-18T14:52:55.546Z,12.50
2023-04-18T14:55:23.295Z,12.50
2023-04-18T14:57:51.332Z,12.60
2023-04-18T15:00:19.491Z,12.60
2023-04-18T15:02:47.563Z,12.70
2023-04-18T15:05:17.549Z,12.60
2023-04-18T15:07:45.575Z,12.70
2023-04-18T15:10:15.120Z,12.80
2023-04-18T15:12:43.020Z,12.80
2023-04-18T15:15:11.195Z,12.70
2023-04-18T15:17:39.218Z,12.60
2023-04-18T15:20:07.976Z,12.60
2023-04-18T15:22:36.542Z,12.50
2023-04-18T15:25:05.712Z,12.50
2023-04-18T15:27:33.916Z,12.50
2023-04-18T15:30:02.425Z,12.50
2023-04-18T15:32:30.027Z,12.50
2023-04-18T15:34:57.936Z,12.50
2023-04-18T15:37:26.482Z,12.30
2023-04-18T15:39:54.204Z,12.20
2023-04-18T15:42:22.046Z,12.00
2023-04-18T15:44:50.302Z,11.90
2023-04-18T15:47:18.008Z,11.80
2023-04-18T15:49:45.620Z,11.80
2023-04-18T15:52:16.049Z,11.80
2023-04-18T15:54:44.046Z,11.90
2023-04-18T15:57:11.817Z,11.90
2023-04-18T15:59:41.113Z,11.90
2023-04-18T16:02:12.045Z,11.90
2023-04-18T16:04:39.651Z,11.80
2023-04-18T16:07:08.286Z,11.80
2023-04-18T16:09:35.892Z,11.70
2023-04-18T16:12:05.076Z,11.70
2023-04-18T16:14:33.682Z,11.80
2023-04-18T16:17:01.345Z,11.80
2023-04-18T16:19:29.881Z,11.70
2023-04-18T16:21:57.814Z,11.70
2023-04-18T16:24:25.731Z,11.60
2023-04-18T16:26:53.650Z,11.50
2023-04-18T16:29:21.182Z,11.50
2023-04-18T16:31:49.126Z,11.50
2023-04-18T16:34:17.083Z,11.40
2023-04-18T16:36:44.651Z,11.40
2023-04-18T16:39:12.478Z,11.40
2023-04-18T16:41:40.194Z,11.30
2023-04-18T16:44:07.964Z,11.30
2023-04-18T16:46:35.656Z,11.30
2023-04-18T16:49:03.398Z,11.20
2023-04-18T16:51:31.549Z,11.20
2023-04-18T16:53:59.153Z,11.10
2023-04-18T16:56:26.689Z,11.10
2023-04-18T16:58:54.288Z,11.10
2023-04-18T17:01:22.143Z,11.10
2023-04-18T17:03:49.920Z,11.00
2023-04-18T17:06:19.557Z,11.00
2023-04-18T17:08:48.929Z,11.00
2023-04-18T17:11:16.592Z,10.70
2023-04-18T17:13:44.252Z,10.50
2023-04-18T17:16:12.011Z,10.20
2023-04-18T17:18:39.612Z,10.10
2023-04-18T17:21:07.194Z,10.00
2023-04-18T17:23:34.780Z,10.00
2023-04-18T17:26:02.494Z,10.00
2023-04-18T17:28:30.115Z,10.00
2023-04-18T17:30:58.489Z,9.80
2023-04-18T17:33:26.025Z,9.70
2023-04-18T17:35:53.848Z,9.70
2023-04-18T17:38:21.577Z,9.60
2023-04-18T17:40:57.341Z,9.50
2023-04-18T17:43:30.086Z,9.50
2023-04-18T17:46:00.241Z,9.40
2023-04-18T17:48:27.921Z,9.20
2023-04-18T17:50:55.625Z,9.20
2023-04-18T17:53:23.373Z,9.10
2023-04-18T17:55:52.291Z,9.10
2023-04-18T17:58:20.135Z,9.00
2023-04-18T18:00:48.180Z,8.90
2023-04-18T18:03:17.109Z,8.90
2023-04-18T18:05:49.007Z,8.90
2023-04-18T18:08:17.247Z,8.90
2023-04-18T18:10:46.889Z,8.90
2023-04-18T18:13:15.264Z,8.90
2023-04-18T18:15:43.477Z,8.80
2023-04-18T18:18:11.746Z,8.70
2023-04-18T18:20:45.961Z,8.70
2023-04-18T18:23:14.576Z,8.60
2023-04-18T18:25:42.885Z,8.50
2023-04-18T18:28:10.907Z,8.50
2023-04-18T18:30:39.786Z,8.30
2023-04-18T18:33:07.377Z,8.20
2023-04-18T18:35:35.176Z,8.20
2023-04-18T18:38:02.736Z,8.10
2023-04-18T18:40:30.595Z,8.00
2023-04-18T18:42:59.397Z,8.00
2023-04-18T18:45:27.057Z,7.90
2023-04-18T18:47:54.844Z,7.70
2023-04-18T18:50:22.617Z,7.60
2023-04-18T18:52:50.298Z,7.50
2023-04-18T18:55:18.414Z,7.50
2023-04-18T18:57:46.595Z,7.50
2023-04-18T19:00:14.366Z,7.40
2023-04-18T19:02:42.036Z,7.40
2023-04-18T19:05:12.464Z,7.50
2023-04-18T19:07:42.416Z,7.40
2023-04-18T19:10:10.792Z,7.20
2023-04-18T19:12:38.587Z,7.00
2023-04-18T19:15:06.894Z,6.90
2023-04-18T19:17:34.842Z,6.80
2023-04-18T19:20:03.310Z,6.70
2023-04-18T19:22:31.562Z,6.60
2023-04-18T19:25:00.729Z,6.60
2023-04-18T19:27:28.343Z,6.60
2023-04-18T19:29:55.996Z,6.50
2023-04-18T19:32:23.557Z,6.40
2023-04-18T19:34:51.523Z,6.40
2023-04-18T19:37:19.110Z,6.30
2023-04-18T19:39:46.746Z,6.20
2023-04-18T19:42:14.369Z,6.20
2023-04-18T19:44:42.155Z,6.20
2023-04-18T19:47:09.789Z,6.10
2023-04-18T19:49:37.840Z,5.90
2023-04-18T19:52:06.169Z,5.80
2023-04-18T19:54:33.729Z,5.80
2023-04-18T19:57:01.476Z,5.70
2023-04-18T19:59:29.032Z,5.60
2023-04-18T20:01:58.640Z,5.50
2023-04-18T20:04:29.048Z,5.40
2023-04-18T20:06:57.198Z,5.30
2023-04-18T20:09:25.967Z,5.40
2023-04-18T20:11:54.380Z,5.40
2023-04-18T20:14:21.996Z,5.40
2023-04-18T20:16:49.941Z,5.40
2023-04-18T20:19:19.478Z,5.30
2023-04-18T20:21:47.081Z,5.30
2023-04-18T20:24:15.624Z,5.40
2023-04-18T20:26:43.211Z,5.40
2023-04-18T20:29:11.284Z,5.40
2023-04-18T20:31:42.224Z,5.20
2023-04-18T20:34:09.955Z,5.10
2023-04-18T20:36:41.555Z,5.10
2023-04-18T20:39:09.733Z,4.90
2023-04-18T20:41:37.397Z,5.00
2023-04-18T20:44:06.899Z,4.90
2023-04-18T20:46:34.571Z,4.90
2023-04-18T20:49:02.258Z,4.90
2023-04-18T20:51:29.888Z,4.90
2023-04-18T20:53:57.472Z,4.90
2023-04-18T20:56:25.262Z,5.00
2023-04-18T20:58:52.863Z,4.90
2023-04-18T21:01:21.087Z,5.00
2023-04-18T21:03:49.095Z,5.00
2023-04-18T21:06:19.104Z,5.00
2023-04-18T21:08:46.657Z,5.00
2023-04-18T21:11:14.253Z,5.00
2023-04-18T21:13:41.822Z,4.90
2023-04-18T21:16:10.352Z,5.00
2023-04-18T21:18:38.142Z,5.00
2023-04-18T21:21:05.854Z,5.10
2023-04-18T21:23:33.461Z,5.10
2023-04-18T21:26:01.034Z,5.10
2023-04-18T21:28:28.581Z,5.20
2023-04-18T21:30:56.300Z,5.20
2023-04-18T21:33:24.600Z,5.30
2023-04-18T21:35:52.163Z,5.40
2023-04-18T21:38:19.782Z,5.40
2023-04-18T21:40:47.385Z,5.40
2023-04-18T21:43:15.019Z,5.30
2023-04-18T21:45:42.574Z,5.30
2023-04-18T21:48:10.680Z,5.20
2023-04-18T21:50:38.365Z,5.20
2023-04-18T21:53:05.886Z,5.30
2023-04-18T21:55:33.450Z,5.40
2023-04-18T21:58:01.176Z,5.40
2023-04-18T22:00:28.870Z,5.50
2023-04-18T22:02:56.509Z,5.50
2023-04-18T22:05:26.330Z,5.50
2023-04-18T22:07:58.248Z,5.50
2023-04-18T22:10:26.356Z,5.50
2023-04-18T22:12:57.330Z,5.40
2023-04-18T22:15:24.968Z,5.50
2023-04-18T22:17:53.090Z,5.50
2023-04-18T22:20:21.639Z,5.50
2023-04-18T22:22:49.393Z,5.50
2023-04-18T22:25:17.154Z,5.50
2023-04-18T22:27:45.198Z,5.40
2023-04-18T22:30:13.916Z,5.40
2023-04-18T22:32:41.912Z,5.40
2023-04-18T22:35:10.110Z,5.50
2023-04-18T22:37:37.730Z,5.50
2023-04-18T22:40:05.815Z,5.50
2023-04-18T22:42:33.797Z,5.50
2023-04-18T22:45:01.716Z,5.40
2023-04-18T22:47:29.315Z,5.40
2023-04-18T22:49:56.935Z,5.40
2023-04-18T22:52:25.452Z,5.50
2023-04-18T22:54:53.107Z,5.50
2023-04-18T22:57:20.734Z,5.50
2023-04-18T22:59:48.479Z,5.50
2023-04-18T23:02:16.423Z,5.50
2023-04-18T23:04:45.415Z,5.60
2023-04-18T23:07:13.090Z,5.70
2023-04-18T23:09:40.826Z,5.60
2023-04-18T23:12:08.463Z,5.70
2023-04-18T23:14:36.054Z,5.70
2023-04-18T23:17:03.643Z,5.60
2023-04-18T23:19:31.366Z,5.70
2023-04-18T23:22:00.133Z,5.60
2023-04-18T23:24:27.914Z,5.60
2023-04-18T23:26:55.470Z,5.60
2023-04-18T23:29:23.111Z,5.60
2023-04-18T23:31:51.497Z,5.60
2023-04-18T23:34:19.140Z,5.60
2023-04-18T23:36:47.221Z,5.70
2023-04-18T23:39:14.866Z,5.70
2023-04-18T23:41:42.492Z,5.60
2023-04-18T23:44:10.036Z,5.60
2023-04-18T23:46:37.618Z,5.60
2023-04-18T23:49:05.574Z,5.50
2023-04-18T23:51:33.359Z,5.50
2023-04-18T23:54:00.919Z,5.50
2023-04-18T23:56:29.696Z,5.60
2023-04-18T23:58:57.765Z,5.50
